Weather at Bui-Dama Airport [CLOSED]

Public forecast

Using degrees Celsius for public forecast. Weather courtesy of forecast.io.

Closest aviation weather report (METAR) to Bui-Dama Airport

Report is more than 2 hours old.

Closest report is Savusavu Airport, 41.4 nm (76.6 km) E.

2024/02/23 04:00 (retrieved 3 hours ago)

NFNS 230400Z 00000KT 9999 -SHRA SCT020TCU BKN045 29/26 Q1008

Closest aviation forecast (TAF) to Bui-Dama Airport

Closest forecast is Nausori International Airport, 71.2 nm (131.8 km) S.

2024/02/23 06:09 (retrieved 29 minutes ago)

TAF TAF NFNA 230503Z 2306/2406 VRB03KT 9999 BKN016 BKN042 PROB40 TEMPO 2306/2312 3000 +TSRA BKN012 SCT016CB PROB40 TEMPO 2318/2322 5000 SHRA BKN015 PROB40 TEMPO 2400/2406 5000 TSRA SCT016CB